This is the latest recevied weather packets stored in our database for station/object GBTWP-2. If no packets are shown the sender has not sent any weather packets the latest 10 day(s).
| Time | Temp. | Humidity | Pressure | Rain* | Wind** | Luminosity | Snow |
|---|---|---|---|---|---|---|---|
| 1777328403 | 17.22° C | 59% | 1015.7 hPa | 0 mm | - | 39 W/m² | - |
| 1777327502 | 17.22° C | 59% | 1016.1 hPa | 0 mm | - | 48 W/m² | - |
| 1777327201 | 17.22° C | 59% | 1016.3 hPa | 0 mm | - | 56 W/m² | - |
| 1777326002 | 17.22° C | 60% | 1015.8 hPa | 0 mm | - | 62 W/m² | - |
| 1777325702 | 17.22° C | 60% | 1016 hPa | 0 mm | - | 60 W/m² | - |
| 1777325403 | 17.22° C | 59% | 1016.1 hPa | 0 mm | - | 62 W/m² | - |
| 1777325102 | 17.22° C | 59% | 1016.3 hPa | 0 mm | - | 66 W/m² | - |
| 1777324802 | 17.22° C | 58% | 1016.3 hPa | 0 mm | - | 69 W/m² | - |
| 1777324201 | 17.22° C | 60% | 1016.2 hPa | 0 mm | - | 69 W/m² | - |
| 1777323602 | 17.78° C | 57% | 1016.3 hPa | 0 mm | - | 74 W/m² | - |
| 1777322702 | 17.78° C | 57% | 1016.5 hPa | 0 mm | - | 70 W/m² | - |
| 1777322402 | 17.78° C | 57% | 1016.5 hPa | 0 mm | - | 68 W/m² | - |
| 1777322102 | 17.78° C | 56% | 1016.7 hPa | 0 mm | - | 72 W/m² | - |
| 1777321802 | 18.33° C | 55% | 1016.8 hPa | 0 mm | - | 76 W/m² | - |
| 1777321502 | 18.33° C | 53% | 1016.8 hPa | 0 mm | - | 78 W/m² | - |
| 1777321202 | 18.33° C | 54% | 1016.8 hPa | 0 mm | - | 79 W/m² | - |
| 1777320602 | 18.33° C | 55% | 1016.5 hPa | 0 mm | - | 90 W/m² | - |
| 1777320302 | 18.33° C | 54% | 1016.7 hPa | 0 mm | - | 101 W/m² | - |
| 1777320002 | 18.33° C | 54% | 1016.6 hPa | 0 mm | - | 111 W/m² | - |
| 1777319702 | 18.33° C | 53% | 1016.7 hPa | 0 mm | - | 116 W/m² | - |
| 1777319102 | 18.89° C | 53% | 1016.6 hPa | 0 mm | - | 129 W/m² | - |
| 1777318202 | 19.44° C | 52% | 1016.7 hPa | 0 mm | - | 156 W/m² | - |
| 1777317902 | 18.89° C | 50% | 1016.8 hPa | 0 mm | - | 166 W/m² | - |
| 1777317002 | 19.44° C | 46% | 1017.2 hPa | 0 mm | - | 156 W/m² | - |
| 1777316702 | 19.44° C | 46% | 1016.8 hPa | 0 mm | - | 170 W/m² | - |
* Rain latest hour (hover to see other rain measurements)
** Current wind speed in m/s (hover to see current wind gust speed)